Time;durP1;ratioP1;P1;durP2;ratioP2;P2;SDS_P1;SDS_P2;PMS_P1;PMS_P2;Temp;Humidity;BMP_temperature;BMP_pressure;BME280_temperature;BME280_humidity;BME280_pressure;Samples;Min_cycle;Max_cycle;Signal;HPM_P1;HPM_P2
2024/02/16 00:00:07;;;;;;;6.53;3.87;;;11.10;75.50;;;;;;5030742;28;20559;-73
2024/02/16 00:02:32;;;;;;;10.40;4.67;;;11.20;75.20;;;;;;5023097;28;20984;-73
2024/02/16 00:04:58;;;;;;;8.13;4.80;;;11.30;75.80;;;;;;5027010;28;20474;-75
2024/02/16 00:07:24;;;;;;;8.70;4.40;;;11.30;75.70;;;;;;5031665;28;20735;-72
2024/02/16 00:09:50;;;;;;;7.73;4.53;;;11.20;75.80;;;;;;5029944;28;20495;-73
2024/02/16 00:12:16;;;;;;;7.63;4.43;;;11.10;75.90;;;;;;5023088;28;20491;-73
2024/02/16 00:14:42;;;;;;;12.93;4.93;;;11.20;75.80;;;;;;5029411;28;20300;-73
2024/02/16 00:17:10;;;;;;;9.60;4.73;;;11.30;75.40;;;;;;5031806;28;20431;-73
2024/02/16 00:19:36;;;;;;;7.00;4.10;;;11.30;75.70;;;;;;5030688;28;20426;-73
2024/02/16 00:22:02;;;;;;;8.33;4.37;;;11.30;75.40;;;;;;5019873;28;20569;-72
2024/02/16 00:24:27;;;;;;;10.90;4.70;;;11.30;75.70;;;;;;5027161;28;20424;-72
2024/02/16 00:26:53;;;;;;;9.40;4.50;;;11.40;75.50;;;;;;5029333;28;20420;-71
2024/02/16 00:29:19;;;;;;;7.37;4.40;;;11.40;75.20;;;;;;5030461;28;20264;-71
2024/02/16 00:31:44;;;;;;;7.03;4.63;;;11.40;75.40;;;;;;5022600;28;20669;-72
2024/02/16 00:34:10;;;;;;;7.57;4.20;;;11.40;75.20;;;;;;5033464;28;20189;-74
2024/02/16 00:36:36;;;;;;;6.53;3.63;;;11.40;75.10;;;;;;5034795;28;20177;-70
2024/02/16 00:39:03;;;;;;;5.23;3.60;;;11.50;75.10;;;;;;5027017;28;20420;-71
2024/02/16 00:41:29;;;;;;;7.00;4.07;;;11.50;74.80;;;;;;5020864;28;20260;-71
2024/02/16 00:43:56;;;;;;;6.97;3.90;;;11.50;74.80;;;;;;5030053;28;20452;-73
2024/02/16 00:46:22;;;;;;;8.60;4.43;;;11.40;74.80;;;;;;5031401;28;20185;-73
2024/02/16 00:48:49;;;;;;;10.37;4.30;;;11.50;74.90;;;;;;5028870;28;20957;-72
2024/02/16 00:51:14;;;;;;;7.57;4.23;;;11.50;74.90;;;;;;5022564;28;20877;-74
2024/02/16 00:53:40;;;;;;;9.23;4.67;;;11.50;74.60;;;;;;5029438;28;20486;-73
2024/02/16 00:56:07;;;;;;;8.70;4.60;;;11.50;74.60;;;;;;5032025;28;20791;-73
2024/02/16 00:58:32;;;;;;;6.53;4.20;;;11.50;74.80;;;;;;5031083;28;20231;-73
2024/02/16 01:00:58;;;;;;;7.60;4.30;;;11.40;75.10;;;;;;5023852;28;20456;-73
2024/02/16 01:03:26;;;;;;;6.83;3.70;;;11.50;75.20;;;;;;5028487;28;20184;-71
2024/02/16 01:05:52;;;;;;;10.13;4.10;;;11.40;75.20;;;;;;5027908;28;20243;-74
2024/02/16 01:08:17;;;;;;;7.00;4.00;;;11.50;75.20;;;;;;5030428;28;20424;-71
2024/02/16 01:10:43;;;;;;;7.37;4.67;;;11.50;74.80;;;;;;5026321;28;20975;-72
2024/02/16 01:13:10;;;;;;;7.77;4.30;;;11.50;74.90;;;;;;5026982;28;20189;-73
2024/02/16 01:15:37;;;;;;;8.33;4.20;;;11.50;75.10;;;;;;5026633;28;20189;-71
2024/02/16 01:18:03;;;;;;;10.00;5.23;;;11.50;75.20;;;;;;5029685;28;20796;-72
2024/02/16 01:20:30;;;;;;;12.10;6.67;;;11.60;75.50;;;;;;5027291;28;20567;-72
2024/02/16 01:22:57;;;;;;;12.13;6.17;;;11.60;75.20;;;;;;5027457;28;20471;-72
2024/02/16 01:25:22;;;;;;;10.57;6.07;;;11.50;75.40;;;;;;5023255;28;20973;-73
2024/02/16 01:27:48;;;;;;;9.00;6.30;;;11.50;75.80;;;;;;5028048;28;20990;-73
2024/02/16 01:30:15;;;;;;;10.60;6.30;;;11.50;75.90;;;;;;5028558;28;20249;-74
2024/02/16 01:32:41;;;;;;;14.40;7.07;;;11.50;75.90;;;;;;5017468;28;20193;-72
2024/02/16 01:35:07;;;;;;;10.40;6.57;;;11.50;75.90;;;;;;5029925;28;20457;-72
2024/02/16 01:37:32;;;;;;;8.17;5.17;;;11.40;76.40;;;;;;5029965;28;20304;-71
2024/02/16 01:39:58;;;;;;;10.00;4.97;;;11.50;76.40;;;;;;5028099;28;21278;-73
2024/02/16 01:42:24;;;;;;;7.43;5.00;;;11.40;76.10;;;;;;5020990;28;20717;-71
2024/02/16 01:44:50;;;;;;;8.33;5.37;;;11.40;76.20;;;;;;5028851;28;20423;-71
2024/02/16 01:47:18;;;;;;;8.87;5.27;;;11.50;76.20;;;;;;5029514;28;20424;-74
2024/02/16 01:49:44;;;;;;;7.70;5.07;;;11.40;76.10;;;;;;5029165;28;20185;-71
2024/02/16 01:52:10;;;;;;;9.63;6.07;;;11.40;76.20;;;;;;5024620;28;20439;-72
2024/02/16 01:54:37;;;;;;;13.13;7.77;;;11.50;76.40;;;;;;5028190;28;20427;-71
2024/02/16 01:57:05;;;;;;;18.30;7.80;;;11.40;76.50;;;;;;5025758;28;20200;-72
2024/02/16 01:59:33;;;;;;;14.97;6.77;;;11.50;76.20;;;;;;5020413;28;20921;-72
2024/02/16 02:01:59;;;;;;;7.50;5.10;;;11.50;76.20;;;;;;5017554;28;20537;-74
2024/02/16 02:04:25;;;;;;;10.40;6.10;;;11.40;76.50;;;;;;5029224;28;20505;-73
2024/02/16 02:06:51;;;;;;;9.70;4.53;;;11.40;76.50;;;;;;5029421;28;20418;-73
2024/02/16 02:09:16;;;;;;;8.60;5.40;;;11.40;76.70;;;;;;5027654;28;20889;-72
2024/02/16 02:11:43;;;;;;;8.80;5.13;;;11.40;76.80;;;;;;5023536;28;20197;-73
2024/02/16 02:14:08;;;;;;;10.87;4.90;;;11.40;76.70;;;;;;5028127;28;20239;-72
2024/02/16 02:16:34;;;;;;;8.67;5.10;;;11.40;77.00;;;;;;5025940;28;20416;-72
2024/02/16 02:18:59;;;;;;;14.53;5.30;;;11.50;77.10;;;;;;5028557;28;20217;-72
2024/02/16 02:21:25;;;;;;;11.00;5.40;;;11.50;77.40;;;;;;5026148;28;20213;-71
2024/02/16 02:23:51;;;;;;;7.43;4.27;;;11.50;77.60;;;;;;5026658;28;20188;-72
2024/02/16 02:26:16;;;;;;;10.30;5.17;;;11.50;77.30;;;;;;5027529;28;20323;-71
2024/02/16 02:28:42;;;;;;;13.97;5.97;;;11.50;77.60;;;;;;5029494;28;20242;-72
2024/02/16 02:31:09;;;;;;;10.27;6.60;;;11.50;77.70;;;;;;5027461;28;20685;-72
2024/02/16 02:33:35;;;;;;;12.80;7.73;;;11.50;77.80;;;;;;5025302;28;20260;-71
2024/02/16 02:36:00;;;;;;;12.10;7.40;;;11.30;78.40;;;;;;5029172;28;20420;-72
2024/02/16 02:38:27;;;;;;;17.53;8.27;;;11.10;78.90;;;;;;5028909;28;20416;-72
2024/02/16 02:40:52;;;;;;;11.10;7.30;;;11.10;79.20;;;;;;5024595;28;20204;-72
2024/02/16 02:43:19;;;;;;;10.63;6.83;;;11.10;79.20;;;;;;5030729;28;20475;-72
2024/02/16 02:45:45;;;;;;;13.27;7.53;;;11.20;79.30;;;;;;5037034;28;20232;-72
2024/02/16 02:48:10;;;;;;;14.10;7.10;;;11.20;79.20;;;;;;5036391;28;20569;-72
2024/02/16 02:50:36;;;;;;;11.80;7.50;;;11.20;79.00;;;;;;5029764;28;20201;-72
2024/02/16 02:53:01;;;;;;;11.67;7.17;;;11.20;79.20;;;;;;5029847;28;20186;-71
2024/02/16 02:55:27;;;;;;;16.80;6.90;;;11.40;78.90;;;;;;5031849;28;20273;-71
2024/02/16 02:57:52;;;;;;;11.97;6.97;;;11.40;78.70;;;;;;5032784;28;20181;-72
2024/02/16 03:00:19;;;;;;;8.03;5.20;;;11.20;79.00;;;;;;5030992;28;20592;-72
2024/02/16 03:02:44;;;;;;;12.60;6.00;;;11.30;79.30;;;;;;5027144;28;20210;-71
2024/02/16 03:05:11;;;;;;;12.40;5.60;;;11.30;79.30;;;;;;5028443;28;20426;-73
2024/02/16 03:07:37;;;;;;;10.80;5.60;;;11.40;79.50;;;;;;5031442;28;20626;-72
2024/02/16 03:10:03;;;;;;;9.70;5.57;;;11.50;79.30;;;;;;5031063;28;20950;-73
2024/02/16 03:12:29;;;;;;;10.97;5.83;;;11.50;79.30;;;;;;5024544;28;20440;-72
2024/02/16 03:14:55;;;;;;;12.07;5.67;;;11.40;79.30;;;;;;5031123;28;20478;-71
2024/02/16 03:17:20;;;;;;;11.60;6.03;;;11.30;79.50;;;;;;5032130;28;20239;-71
2024/02/16 03:19:46;;;;;;;8.57;5.67;;;11.30;79.60;;;;;;5032159;28;20423;-73
2024/02/16 03:22:12;;;;;;;9.37;6.20;;;11.30;79.70;;;;;;5029684;28;20225;-72
2024/02/16 03:24:38;;;;;;;9.60;6.20;;;11.30;79.60;;;;;;5031804;28;20765;-72
2024/02/16 03:27:04;;;;;;;17.10;7.93;;;11.20;79.70;;;;;;5031786;28;20643;-72
2024/02/16 03:29:29;;;;;;;12.80;8.30;;;11.30;79.70;;;;;;5031241;28;20196;-72
2024/02/16 03:31:55;;;;;;;10.57;7.60;;;11.30;79.30;;;;;;5029111;28;20213;-72
2024/02/16 03:34:20;;;;;;;16.37;7.70;;;11.30;79.50;;;;;;5032411;28;20731;-72
2024/02/16 03:36:46;;;;;;;13.87;7.87;;;11.10;79.50;;;;;;5028967;28;20173;-72
2024/02/16 03:39:11;;;;;;;12.20;7.97;;;11.10;79.70;;;;;;5031354;28;20219;-71
2024/02/16 03:41:37;;;;;;;15.57;9.30;;;11.10;79.60;;;;;;5028489;28;20217;-73
2024/02/16 03:44:03;;;;;;;13.20;7.23;;;11.00;79.70;;;;;;5024319;28;20178;-72
2024/02/16 03:46:28;;;;;;;14.43;7.20;;;11.00;79.70;;;;;;5031521;28;20267;-73
2024/02/16 03:48:54;;;;;;;11.20;6.40;;;11.00;80.20;;;;;;5030997;28;20319;-73
2024/02/16 03:51:19;;;;;;;14.60;6.60;;;11.10;80.30;;;;;;5028510;28;20201;-71
2024/02/16 03:53:46;;;;;;;12.50;6.77;;;11.10;80.50;;;;;;5026312;28;20260;-71
2024/02/16 03:56:12;;;;;;;11.60;7.27;;;11.20;80.50;;;;;;5029026;28;20190;-71
2024/02/16 03:58:37;;;;;;;13.57;6.50;;;11.20;80.50;;;;;;5025551;28;20780;-72
2024/02/16 04:01:06;;;;;;;11.80;6.47;;;11.20;80.50;;;;;;5024920;28;20308;-72
2024/02/16 04:03:32;;;;;;;13.67;6.60;;;11.20;80.60;;;;;;5022444;28;20199;-71
2024/02/16 04:05:59;;;;;;;12.17;6.50;;;11.20;80.50;;;;;;5031151;28;20924;-73
2024/02/16 04:08:25;;;;;;;11.53;6.87;;;11.20;80.50;;;;;;5030895;28;20181;-72
2024/02/16 04:10:50;;;;;;;13.77;6.50;;;11.10;80.30;;;;;;5026904;28;20948;-71
2024/02/16 04:13:16;;;;;;;12.10;6.00;;;11.20;80.60;;;;;;5025235;28;20264;-72
2024/02/16 04:15:42;;;;;;;6.80;4.43;;;11.20;80.50;;;;;;5033078;28;20192;-72
2024/02/16 04:18:07;;;;;;;8.90;5.50;;;11.20;80.50;;;;;;5031239;28;20177;-70
2024/02/16 04:20:33;;;;;;;9.23;5.83;;;11.20;80.60;;;;;;5028205;28;20588;-72
2024/02/16 04:22:59;;;;;;;9.50;6.70;;;11.10;80.50;;;;;;5028962;28;20842;-71
2024/02/16 04:25:24;;;;;;;11.63;6.50;;;11.20;80.50;;;;;;5031984;28;20272;-72
2024/02/16 04:27:50;;;;;;;11.50;7.10;;;11.10;80.30;;;;;;5031301;28;20216;-72
2024/02/16 04:30:16;;;;;;;14.03;7.53;;;11.20;80.50;;;;;;5028584;28;20266;-72
2024/02/16 04:32:42;;;;;;;10.73;6.63;;;11.10;80.20;;;;;;5023533;28;20436;-72
2024/02/16 04:35:11;;;;;;;11.90;7.87;;;11.20;80.20;;;;;;5032206;28;20646;-73
2024/02/16 04:37:38;;;;;;;11.50;7.03;;;11.20;80.00;;;;;;5032357;28;20645;-73
2024/02/16 04:40:05;;;;;;;10.90;7.30;;;11.20;80.20;;;;;;5023646;28;20422;-73
2024/02/16 04:42:31;;;;;;;13.57;8.63;;;11.20;80.00;;;;;;5025585;28;20479;-72
2024/02/16 04:44:56;;;;;;;11.57;7.17;;;11.20;80.20;;;;;;5026472;28;20412;-72
2024/02/16 04:47:22;;;;;;;12.57;7.40;;;11.20;80.00;;;;;;5030791;28;20262;-72
2024/02/16 04:49:48;;;;;;;10.07;6.33;;;11.10;80.20;;;;;;5024899;28;20589;-73
2024/02/16 04:52:13;;;;;;;10.20;5.60;;;11.20;80.20;;;;;;5030566;28;20201;-71
2024/02/16 04:54:40;;;;;;;13.50;7.20;;;11.30;80.00;;;;;;5024014;28;20185;-72
2024/02/16 04:57:06;;;;;;;13.90;5.43;;;11.30;80.00;;;;;;5030047;28;20189;-72
2024/02/16 04:59:31;;;;;;;11.87;6.07;;;11.30;80.00;;;;;;5030247;28;20505;-72
2024/02/16 05:01:57;;;;;;;8.80;4.80;;;11.30;79.90;;;;;;5024740;28;20263;-72
2024/02/16 05:04:22;;;;;;;7.20;4.27;;;11.40;79.60;;;;;;5024883;28;20197;-73
2024/02/16 05:06:49;;;;;;;9.10;5.20;;;11.40;79.50;;;;;;5029621;28;20181;-72
2024/02/16 05:09:16;;;;;;;7.80;4.90;;;11.40;79.30;;;;;;5030030;28;20185;-72
2024/02/16 05:11:42;;;;;;;8.70;5.03;;;11.40;79.20;;;;;;5027148;28;20839;-72
2024/02/16 05:14:08;;;;;;;8.40;5.50;;;11.40;79.20;;;;;;5026519;28;20467;-72
2024/02/16 05:16:34;;;;;;;10.50;5.13;;;11.40;79.00;;;;;;5028941;28;20421;-74
2024/02/16 05:18:59;;;;;;;9.87;5.73;;;11.30;78.70;;;;;;5030897;28;20186;-73
2024/02/16 05:21:25;;;;;;;10.17;5.80;;;11.30;79.20;;;;;;5026504;28;20224;-73
2024/02/16 05:23:50;;;;;;;11.00;6.03;;;11.30;79.20;;;;;;5024441;28;20185;-72
2024/02/16 05:26:16;;;;;;;9.77;5.20;;;11.40;79.20;;;;;;5030497;28;20185;-72
2024/02/16 05:28:42;;;;;;;13.17;5.77;;;11.30;79.20;;;;;;5029851;28;20181;-71
2024/02/16 05:31:17;;;;;;;10.20;5.60;;;11.30;79.20;;;;;;5024196;28;20217;-71
2024/02/16 05:33:49;;;;;;;11.07;6.00;;;11.30;79.20;;;;;;5028049;28;21035;-74
2024/02/16 05:36:25;;;;;;;10.50;5.53;;;11.30;79.00;;;;;;5024263;28;21168;-72
2024/02/16 05:38:51;;;;;;;8.50;5.30;;;11.40;78.90;;;;;;5027465;28;20435;-72
2024/02/16 05:41:20;;;;;;;9.63;5.30;;;11.40;78.70;;;;;;5024058;28;20546;-71
2024/02/16 05:43:48;;;;;;;14.40;5.07;;;11.30;78.60;;;;;;5027761;28;20451;-72
2024/02/16 05:46:14;;;;;;;10.67;5.30;;;11.40;78.40;;;;;;5030060;28;20415;-72
2024/02/16 05:48:40;;;;;;;7.10;5.07;;;11.30;78.30;;;;;;5028645;28;20431;-72
2024/02/16 05:51:06;;;;;;;7.07;5.00;;;11.40;78.30;;;;;;5026335;28;20550;-73
2024/02/16 05:53:33;;;;;;;8.97;5.20;;;11.30;78.30;;;;;;5027501;28;20203;-73
2024/02/16 05:55:59;;;;;;;7.93;5.10;;;11.40;78.10;;;;;;5029848;28;20436;-72
2024/02/16 05:58:25;;;;;;;9.60;4.47;;;11.30;78.10;;;;;;5029549;28;20424;-72
2024/02/16 06:00:51;;;;;;;8.63;5.30;;;11.20;77.70;;;;;;5025040;28;20459;-73
2024/02/16 06:03:17;;;;;;;7.80;4.70;;;11.20;77.60;;;;;;5018309;28;20220;-72
2024/02/16 06:05:44;;;;;;;7.97;4.97;;;11.10;77.70;;;;;;5029487;28;20428;-72
2024/02/16 06:08:13;;;;;;;7.83;4.80;;;11.10;77.60;;;;;;5028735;28;20416;-72
2024/02/16 06:10:39;;;;;;;9.53;5.10;;;11.10;77.60;;;;;;5026237;28;20984;-72
2024/02/16 06:13:06;;;;;;;10.10;5.50;;;11.00;77.70;;;;;;5028921;28;20503;-72
2024/02/16 06:15:33;;;;;;;7.33;5.03;;;11.00;77.80;;;;;;5025357;28;20815;-72
2024/02/16 06:18:00;;;;;;;10.43;6.40;;;11.00;78.00;;;;;;5029016;28;20427;-71
2024/02/16 06:20:25;;;;;;;11.23;7.23;;;11.10;77.80;;;;;;5027187;28;20456;-72
2024/02/16 06:22:51;;;;;;;11.67;7.63;;;11.00;77.80;;;;;;5028321;28;20489;-72
2024/02/16 06:25:16;;;;;;;11.13;5.97;;;11.10;77.80;;;;;;5028191;28;20695;-72
2024/02/16 06:27:42;;;;;;;10.27;6.53;;;11.10;78.10;;;;;;5031004;28;20315;-72
2024/02/16 06:30:12;;;;;;;15.00;6.90;;;11.10;78.10;;;;;;5031925;28;20642;-73
2024/02/16 06:32:41;;;;;;;12.83;6.63;;;11.10;78.30;;;;;;5022418;28;20203;-73
2024/02/16 06:35:07;;;;;;;9.33;5.87;;;11.10;78.40;;;;;;5029929;28;20419;-73
2024/02/16 06:37:33;;;;;;;10.60;6.40;;;11.10;78.40;;;;;;5031571;28;20433;-73
2024/02/16 06:39:59;;;;;;;7.97;6.17;;;11.10;78.40;;;;;;5033249;28;20466;-72
2024/02/16 06:42:24;;;;;;;13.03;6.97;;;11.10;78.60;;;;;;5025491;28;20209;-75
2024/02/16 06:44:50;;;;;;;9.43;5.70;;;11.10;78.30;;;;;;5031906;28;20273;-72
2024/02/16 06:47:16;;;;;;;9.63;5.97;;;11.00;78.40;;;;;;5033597;28;20185;-73
2024/02/16 06:49:41;;;;;;;8.67;6.03;;;11.00;78.60;;;;;;5033356;28;20571;-73
2024/02/16 06:52:09;;;;;;;8.90;5.50;;;11.10;78.60;;;;;;5024473;28;20233;-73
2024/02/16 06:54:34;;;;;;;8.70;5.47;;;11.10;78.30;;;;;;5031713;28;20185;-74
2024/02/16 06:57:01;;;;;;;14.07;5.40;;;11.00;78.10;;;;;;5034625;28;20453;-74
2024/02/16 06:59:26;;;;;;;13.53;5.90;;;10.90;78.30;;;;;;5042505;28;20240;-74
2024/02/16 07:01:52;;;;;;;8.13;5.23;;;10.90;78.40;;;;;;5032764;28;20575;-72
2024/02/16 07:04:18;;;;;;;8.50;5.17;;;10.90;78.40;;;;;;5029526;28;20220;-74
2024/02/16 07:06:44;;;;;;;8.97;4.70;;;11.00;78.30;;;;;;5032132;28;20460;-72
2024/02/16 07:09:09;;;;;;;8.10;4.90;;;11.00;78.10;;;;;;5032682;28;20185;-74
2024/02/16 07:11:35;;;;;;;7.03;4.90;;;11.10;77.80;;;;;;5026938;28;20287;-71
2024/02/16 07:14:02;;;;;;;9.10;4.57;;;11.00;77.80;;;;;;5030499;28;20255;-72
2024/02/16 07:16:28;;;;;;;7.40;4.90;;;10.90;77.80;;;;;;5032740;28;20256;-73
2024/02/16 07:18:53;;;;;;;9.70;5.50;;;11.00;78.00;;;;;;5032589;28;20523;-72
2024/02/16 07:21:20;;;;;;;7.80;5.07;;;11.00;77.80;;;;;;5027826;28;20455;-73
2024/02/16 07:23:46;;;;;;;11.07;5.07;;;11.00;77.70;;;;;;5026290;28;20212;-73
2024/02/16 07:26:13;;;;;;;12.73;5.73;;;11.10;77.60;;;;;;5033344;28;20816;-74
2024/02/16 07:28:38;;;;;;;9.63;4.60;;;11.20;77.30;;;;;;5035397;28;20638;-73
2024/02/16 07:31:04;;;;;;;8.20;5.33;;;11.20;77.00;;;;;;5029160;28;20509;-72
2024/02/16 07:33:30;;;;;;;7.43;4.23;;;11.20;76.80;;;;;;5023837;28;20201;-73
2024/02/16 07:35:55;;;;;;;6.30;4.43;;;11.20;76.80;;;;;;5029206;28;20300;-72
2024/02/16 07:38:21;;;;;;;12.50;4.67;;;11.20;76.70;;;;;;5033583;28;20190;-72
2024/02/16 07:40:47;;;;;;;10.23;5.30;;;11.10;76.80;;;;;;5031284;28;20205;-73
2024/02/16 07:43:13;;;;;;;8.27;4.60;;;11.20;76.80;;;;;;5028626;28;20469;-72
2024/02/16 07:45:39;;;;;;;12.10;4.80;;;11.10;76.50;;;;;;5030743;28;20255;-74
2024/02/16 07:48:06;;;;;;;7.50;4.60;;;11.10;76.70;;;;;;5033065;28;20316;-73
2024/02/16 07:50:32;;;;;;;9.00;5.53;;;11.10;76.70;;;;;;5025780;28;20258;-72
2024/02/16 07:52:58;;;;;;;9.07;4.77;;;11.10;76.40;;;;;;5023681;28;20452;-74
2024/02/16 07:55:24;;;;;;;6.47;4.50;;;11.10;76.50;;;;;;5031210;28;20255;-74
2024/02/16 07:57:52;;;;;;;8.20;4.67;;;11.10;76.40;;;;;;5036015;28;20212;-72
2024/02/16 08:00:18;;;;;;;7.40;5.37;;;11.10;76.10;;;;;;5028867;28;20517;-73
2024/02/16 08:02:44;;;;;;;8.00;5.53;;;11.10;76.20;;;;;;5020440;28;20479;-72
2024/02/16 08:05:13;;;;;;;6.83;4.73;;;11.10;76.10;;;;;;5031677;28;20416;-73
2024/02/16 08:07:43;;;;;;;7.70;4.60;;;11.10;76.10;;;;;;5034384;28;20589;-73
2024/02/16 08:10:09;;;;;;;9.90;4.10;;;11.10;76.10;;;;;;5031901;28;20424;-75
2024/02/16 08:12:35;;;;;;;13.80;5.50;;;11.10;76.40;;;;;;5024665;28;20542;-73
2024/02/16 08:15:06;;;;;;;8.13;4.73;;;11.10;76.10;;;;;;5031475;28;21639;-73
2024/02/16 08:17:36;;;;;;;12.83;5.47;;;11.00;76.50;;;;;;5032252;28;20546;-72
2024/02/16 08:20:02;;;;;;;12.07;5.57;;;11.10;76.50;;;;;;5031487;28;20408;-73
2024/02/16 08:22:27;;;;;;;11.23;5.70;;;11.10;76.70;;;;;;5022262;28;20472;-72
2024/02/16 08:24:53;;;;;;;12.00;6.20;;;11.30;76.70;;;;;;5030799;28;20416;-75
2024/02/16 08:27:18;;;;;;;10.53;6.10;;;11.40;76.40;;;;;;5030249;28;20268;-72
2024/02/16 08:29:44;;;;;;;15.20;8.00;;;11.50;76.20;;;;;;5036429;28;20547;-71
2024/02/16 08:32:10;;;;;;;14.10;7.90;;;11.50;75.90;;;;;;5020757;28;20217;-73
2024/02/16 08:34:39;;;;;;;17.50;8.60;;;11.60;75.90;;;;;;5027842;28;20186;-73
2024/02/16 08:37:06;;;;;;;16.30;8.40;;;11.70;75.80;;;;;;5030942;28;20424;-73
2024/02/16 08:39:34;;;;;;;11.73;7.80;;;11.70;75.40;;;;;;5027775;28;20473;-72
2024/02/16 08:41:59;;;;;;;15.13;8.13;;;11.70;74.60;;;;;;5022989;28;20535;-73
2024/02/16 08:44:26;;;;;;;12.10;7.70;;;11.60;74.30;;;;;;5028125;28;20424;-73
2024/02/16 08:46:51;;;;;;;10.90;6.50;;;11.70;74.30;;;;;;5030893;28;20177;-74
2024/02/16 08:49:17;;;;;;;11.07;7.47;;;11.90;74.00;;;;;;5032312;28;20443;-71
2024/02/16 08:51:43;;;;;;;14.00;7.50;;;12.00;73.90;;;;;;5027259;28;20193;-72
2024/02/16 08:54:10;;;;;;;13.30;7.93;;;12.10;73.60;;;;;;5016981;28;20178;-72
2024/02/16 08:56:36;;;;;;;10.40;7.10;;;12.20;73.50;;;;;;5030993;28;20440;-73
2024/02/16 08:59:02;;;;;;;10.40;7.20;;;12.30;73.20;;;;;;5031157;28;20843;-73
2024/02/16 09:01:39;;;;;;;12.97;7.40;;;12.50;72.60;;;;;;5028611;28;20236;-72
2024/02/16 09:04:05;;;;;;;13.50;7.43;;;12.60;72.30;;;;;;5023610;28;20423;-73
2024/02/16 09:06:30;;;;;;;10.90;6.87;;;12.60;70.80;;;;;;5036208;28;20519;-72
2024/02/16 09:08:56;;;;;;;13.83;7.50;;;12.60;70.80;;;;;;5039406;28;20681;-72
2024/02/16 09:11:23;;;;;;;9.10;5.40;;;12.70;70.80;;;;;;5023269;28;20194;-73
2024/02/16 09:13:49;;;;;;;8.97;6.20;;;12.90;70.20;;;;;;5031072;28;20416;-73
2024/02/16 09:16:15;;;;;;;8.93;6.20;;;13.10;69.50;;;;;;5037461;28;20408;-74
2024/02/16 09:18:41;;;;;;;7.30;5.13;;;13.20;68.30;;;;;;5030668;28;20447;-72
2024/02/16 09:21:07;;;;;;;10.30;5.77;;;13.30;67.90;;;;;;5023410;28;20447;-73
2024/02/16 09:23:33;;;;;;;10.30;5.70;;;13.30;67.90;;;;;;5021783;28;20217;-72
2024/02/16 09:25:59;;;;;;;10.43;5.43;;;13.40;67.20;;;;;;5030580;28;20466;-73
2024/02/16 09:28:28;;;;;;;9.00;5.33;;;13.60;67.00;;;;;;5030292;28;20417;-72
2024/02/16 09:30:55;;;;;;;11.07;6.03;;;13.90;66.90;;;;;;5025351;28;20681;-72
2024/02/16 09:33:21;;;;;;;11.47;5.77;;;14.20;66.30;;;;;;5026660;28;20428;-73
2024/02/16 09:35:47;;;;;;;14.17;6.00;;;14.30;65.60;;;;;;5030491;28;21003;-73
2024/02/16 09:38:13;;;;;;;12.60;7.00;;;14.10;65.30;;;;;;5030635;28;20893;-73
2024/02/16 09:40:39;;;;;;;15.47;6.40;;;14.10;65.60;;;;;;5024476;28;20479;-73
2024/02/16 09:43:04;;;;;;;9.30;6.33;;;14.00;65.80;;;;;;5024034;28;20708;-73
2024/02/16 09:45:32;;;;;;;10.87;7.03;;;13.90;66.10;;;;;;5030634;28;20181;-72
2024/02/16 09:47:58;;;;;;;13.33;7.13;;;14.00;66.10;;;;;;5029375;28;20389;-72
2024/02/16 09:50:24;;;;;;;12.60;6.07;;;14.10;66.00;;;;;;5026506;28;20798;-73
2024/02/16 09:52:50;;;;;;;14.20;6.60;;;14.20;65.70;;;;;;5024844;28;20584;-71
2024/02/16 09:55:17;;;;;;;11.20;6.20;;;14.30;65.70;;;;;;5024806;28;20675;-73
2024/02/16 09:57:43;;;;;;;9.53;5.50;;;14.60;65.40;;;;;;5030009;28;20451;-72
2024/02/16 10:00:10;;;;;;;11.23;5.93;;;14.80;65.00;;;;;;5029578;28;20926;-74
2024/02/16 10:02:48;;;;;;;10.40;6.20;;;15.20;64.50;;;;;;5027708;28;20489;-71
2024/02/16 10:05:19;;;;;;;9.90;5.60;;;15.60;63.80;;;;;;5025717;28;20404;-72
2024/02/16 10:07:45;;;;;;;11.53;5.80;;;15.80;62.80;;;;;;5029920;28;20430;-74
2024/02/16 10:10:31;;;;;;;11.30;5.90;;;15.80;62.30;;;;;;5028311;28;20481;-73
2024/02/16 10:13:05;;;;;;;11.47;5.70;;;15.80;62.80;;;;;;5024723;28;20526;-73
2024/02/16 10:15:31;;;;;;;10.33;5.47;;;15.70;62.80;;;;;;5026212;28;20951;-73
2024/02/16 10:18:07;;;;;;;12.20;6.10;;;15.60;62.60;;;;;;5029618;28;20406;-72
2024/02/16 10:20:34;;;;;;;12.07;5.80;;;15.90;62.60;;;;;;5026048;28;20490;-72
2024/02/16 10:23:04;;;;;;;8.40;5.00;;;16.00;62.20;;;;;;5014521;28;20476;-73
2024/02/16 10:25:30;;;;;;;8.50;5.63;;;16.10;62.60;;;;;;5029446;28;20419;-73
2024/02/16 10:27:58;;;;;;;9.73;5.13;;;16.40;62.50;;;;;;5030005;28;20423;-72
2024/02/16 10:30:31;;;;;;;10.23;5.10;;;16.70;62.50;;;;;;5021886;28;20206;-72
2024/02/16 10:32:59;;;;;;;8.53;5.20;;;17.00;61.90;;;;;;5017680;28;20439;-72
2024/02/16 10:35:26;;;;;;;11.80;5.37;;;17.00;61.30;;;;;;5020843;28;20475;-73
2024/02/16 10:37:52;;;;;;;9.40;5.80;;;17.10;61.30;;;;;;5029881;28;20415;-72
2024/02/16 10:40:20;;;;;;;10.83;5.37;;;16.80;61.70;;;;;;5027695;28;20990;-72
2024/02/16 10:42:46;;;;;;;10.03;5.13;;;17.00;61.90;;;;;;5019402;28;20524;-72
2024/02/16 10:45:16;;;;;;;11.90;6.00;;;17.10;61.60;;;;;;5029013;28;20416;-73
2024/02/16 10:47:41;;;;;;;12.43;5.67;;;17.20;61.20;;;;;;5029582;28;20993;-75
2024/02/16 10:50:09;;;;;;;7.40;4.60;;;17.20;61.30;;;;;;5028318;28;20412;-74
2024/02/16 10:52:37;;;;;;;8.53;4.57;;;17.30;61.20;;;;;;5022882;28;20198;-72
2024/02/16 10:55:05;;;;;;;12.20;4.93;;;17.50;61.00;;;;;;5029485;28;20810;-73
2024/02/16 10:57:33;;;;;;;10.13;4.70;;;17.60;60.70;;;;;;5032000;28;20424;-72
2024/02/16 10:59:59;;;;;;;9.67;4.17;;;17.50;60.10;;;;;;5029024;28;20593;-73
2024/02/16 11:02:25;;;;;;;7.50;4.07;;;17.70;60.10;;;;;;5021646;28;20643;-73
2024/02/16 11:04:52;;;;;;;7.97;4.10;;;17.70;60.10;;;;;;5030498;28;20822;-73
2024/02/16 11:07:19;;;;;;;9.07;3.67;;;17.90;59.60;;;;;;5033730;28;20924;-73
2024/02/16 11:09:46;;;;;;;10.50;3.97;;;17.90;59.30;;;;;;5031607;28;20902;-73
2024/02/16 11:12:15;;;;;;;8.53;3.30;;;18.00;59.30;;;;;;5027162;28;20943;-74
2024/02/16 11:14:45;;;;;;;6.43;3.13;;;18.10;58.90;;;;;;5027916;28;20434;-73
2024/02/16 11:17:15;;;;;;;8.40;3.10;;;18.10;58.70;;;;;;5034115;28;20424;-72
2024/02/16 11:19:42;;;;;;;8.30;2.60;;;18.20;58.80;;;;;;5033878;28;20420;-72
2024/02/16 11:22:08;;;;;;;6.00;2.97;;;18.20;58.50;;;;;;5029077;28;20485;-73
2024/02/16 11:24:35;;;;;;;5.27;2.70;;;18.20;58.20;;;;;;5025712;28;20427;-73
2024/02/16 11:27:03;;;;;;;7.83;4.23;;;18.20;58.80;;;;;;5036045;28;20416;-72
2024/02/16 11:29:33;;;;;;;8.83;4.20;;;18.10;59.20;;;;;;5036234;28;20516;-73
2024/02/16 11:32:03;;;;;;;8.33;3.97;;;17.90;59.70;;;;;;5029311;28;21065;-72
2024/02/16 11:34:30;;;;;;;7.97;4.20;;;18.00;59.90;;;;;;5026744;28;20422;-73
2024/02/16 11:36:56;;;;;;;9.47;4.73;;;18.10;59.90;;;;;;5033107;28;20417;-74
2024/02/16 11:39:22;;;;;;;7.13;3.47;;;18.20;59.90;;;;;;5034652;28;20931;-73
2024/02/16 11:41:58;;;;;;;6.00;3.90;;;18.30;59.70;;;;;;5023236;28;20486;-72
2024/02/16 11:44:24;;;;;;;8.07;3.93;;;18.40;59.60;;;;;;5031076;28;20418;-72
2024/02/16 11:46:53;;;;;;;6.80;3.70;;;18.50;59.50;;;;;;5032279;28;20498;-72
2024/02/16 11:49:19;;;;;;;8.97;4.07;;;18.70;58.40;;;;;;5035590;28;20316;-73
2024/02/16 11:51:45;;;;;;;5.90;3.43;;;18.70;57.80;;;;;;5028514;28;20550;-73
2024/02/16 11:54:12;;;;;;;7.87;3.97;;;18.90;58.20;;;;;;5029029;28;20903;-73
2024/02/16 11:56:39;;;;;;;4.67;3.10;;;19.10;57.20;;;;;;5024781;28;20313;-72
2024/02/16 11:59:06;;;;;;;6.80;3.40;;;19.30;56.50;;;;;;5032719;28;21050;-72
2024/02/16 12:01:34;;;;;;;6.27;3.60;;;19.50;56.20;;;;;;5027151;28;20466;-74
2024/02/16 12:03:59;;;;;;;6.07;2.60;;;19.60;55.80;;;;;;5026936;28;20752;-72
2024/02/16 12:06:25;;;;;;;5.90;3.20;;;19.60;56.00;;;;;;5026764;28;20500;-73
2024/02/16 12:08:54;;;;;;;3.83;2.20;;;19.50;56.40;;;;;;5032110;28;20189;-72
2024/02/16 12:11:19;;;;;;;3.67;2.40;;;19.50;56.40;;;;;;5025052;28;20210;-72
2024/02/16 12:13:45;;;;;;;7.27;3.17;;;19.30;56.80;;;;;;5029685;28;20859;-72
2024/02/16 12:16:11;;;;;;;7.00;3.40;;;19.40;57.20;;;;;;5031115;28;20646;-72
2024/02/16 12:18:37;;;;;;;7.30;3.23;;;19.20;57.00;;;;;;5030671;28;20431;-74
2024/02/16 12:21:06;;;;;;;5.40;3.43;;;19.30;57.80;;;;;;5022335;28;20399;-72
2024/02/16 12:23:32;;;;;;;5.60;2.80;;;19.50;56.80;;;;;;5026006;28;20221;-74
2024/02/16 12:26:02;;;;;;;10.70;3.73;;;19.80;56.60;;;;;;5030640;28;20420;-72
2024/02/16 12:28:30;;;;;;;9.03;3.40;;;19.70;56.50;;;;;;5026403;28;20444;-72
2024/02/16 12:30:55;;;;;;;4.23;2.33;;;19.70;56.50;;;;;;5026297;28;21158;-72
2024/02/16 12:33:22;;;;;;;4.03;2.50;;;19.50;57.40;;;;;;5027923;28;20443;-73
2024/02/16 12:35:48;;;;;;;7.97;3.60;;;19.60;57.60;;;;;;5030152;28;20428;-73